createdAt,value
2019-01-19T00:26:07.434Z,2.20
2019-01-19T00:30:30.559Z,2.10
2019-01-19T09:16:49.019Z,4.50
2019-01-19T09:39:36.901Z,5.80
2019-01-19T09:47:12.172Z,6.10
2019-01-19T09:50:32.883Z,6.00
2019-01-19T09:53:53.126Z,6.10
2019-01-19T09:57:24.485Z,6.20
2019-01-19T10:00:45.864Z,6.40
2019-01-19T10:04:05.949Z,6.60
2019-01-19T10:07:27.720Z,6.80
2019-01-19T10:10:46.838Z,6.90
2019-01-19T10:14:06.885Z,7.20
2019-01-19T10:17:33.010Z,7.40
2019-01-19T10:20:41.802Z,7.00
2019-01-19T10:23:50.654Z,7.00
2019-01-19T10:26:59.618Z,6.50
2019-01-19T10:30:20.535Z,6.50
2019-01-19T10:33:29.045Z,6.50
2019-01-19T10:36:37.535Z,6.80
2019-01-19T10:40:08.942Z,6.80
2019-01-19T10:43:17.546Z,6.80
2019-01-19T10:46:26.007Z,7.10
2019-01-19T10:49:58.579Z,7.30
2019-01-19T10:53:19.233Z,7.30
2019-01-19T10:56:39.955Z,7.10
2019-01-19T11:11:58.025Z,6.10
2019-01-19T11:15:19.026Z,6.50
2019-01-19T11:18:45.154Z,7.10
2019-01-19T11:34:28.970Z,8.10
2019-01-19T13:30:23.207Z,12.80
2019-01-19T14:55:19.347Z,7.30
2019-01-19T14:59:11.616Z,7.30
2019-01-19T15:03:25.816Z,6.90
2019-01-19T15:07:34.776Z,6.80
2019-01-19T15:26:01.215Z,6.30
2019-01-19T15:30:31.067Z,6.10
2019-01-19T15:34:38.757Z,6.10
2019-01-19T15:38:36.229Z,6.00
2019-01-19T15:42:45.017Z,5.90
2019-01-19T15:47:05.615Z,5.80
2019-01-19T15:51:10.271Z,5.70
2019-01-19T16:17:05.986Z,5.00
2019-01-19T16:25:33.537Z,4.80
2019-01-19T16:30:00.350Z,4.80
2019-01-19T17:15:04.535Z,4.00
2019-01-19T17:19:42.581Z,3.90
2019-01-19T18:03:46.852Z,3.40
2019-01-19T18:16:08.339Z,3.60
2019-01-19T18:19:49.462Z,3.50
2019-01-19T18:23:48.726Z,3.50
2019-01-19T19:08:06.866Z,3.20
2019-01-19T19:11:58.031Z,3.10
2019-01-19T19:15:45.336Z,3.10
2019-01-19T19:19:51.201Z,3.00
2019-01-19T19:23:40.215Z,2.90
2019-01-19T22:28:55.002Z,1.70
